createdAt,value
2022-11-05T00:01:04.126Z,9.48
2022-11-05T00:02:26.154Z,9.10
2022-11-05T00:03:48.185Z,8.88
2022-11-05T00:05:09.930Z,8.95
2022-11-05T00:06:32.135Z,8.45
2022-11-05T00:08:12.421Z,9.93
2022-11-05T00:09:32.531Z,10.25
2022-11-05T00:10:36.932Z,10.43
2022-11-05T00:11:59.142Z,7.93
2022-11-05T00:13:19.842Z,8.80
2022-11-05T00:14:42.144Z,8.27
2022-11-05T00:16:05.145Z,8.52
2022-11-05T00:17:07.959Z,8.98
2022-11-05T00:18:09.620Z,9.98
2022-11-05T00:19:13.848Z,10.40
2022-11-05T00:20:18.641Z,10.05
2022-11-05T00:21:41.142Z,7.13
2022-11-05T00:23:02.147Z,8.02
2022-11-05T00:24:27.500Z,9.73
2022-11-05T00:25:33.187Z,7.82
2022-11-05T00:26:36.116Z,8.85
2022-11-05T00:28:32.597Z,7.43
2022-11-05T00:29:34.791Z,10.10
2022-11-05T00:30:39.816Z,9.80
2022-11-05T00:31:43.496Z,9.70
2022-11-05T00:32:54.810Z,9.60
2022-11-05T00:33:56.565Z,9.15
2022-11-05T00:34:59.629Z,11.00
2022-11-05T00:36:08.766Z,11.57
2022-11-05T00:37:11.555Z,10.70
2022-11-05T00:38:16.121Z,10.65
2022-11-05T00:39:19.413Z,10.15
2022-11-05T00:40:21.591Z,9.95
2022-11-05T00:41:27.032Z,10.20
2022-11-05T00:42:48.169Z,8.60
2022-11-05T00:44:09.178Z,7.80
2022-11-05T00:45:11.504Z,10.07
2022-11-05T00:46:13.461Z,9.52
2022-11-05T00:47:33.990Z,7.82
2022-11-05T00:48:55.741Z,6.88
2022-11-05T00:49:58.340Z,7.50
2022-11-05T00:51:00.414Z,9.18
2022-11-05T00:52:22.274Z,8.02
2022-11-05T00:53:24.600Z,6.25
2022-11-05T00:54:27.049Z,7.50
2022-11-05T00:55:34.701Z,7.85
2022-11-05T00:56:37.309Z,8.55
2022-11-05T00:57:39.906Z,6.47
2022-11-05T00:58:42.684Z,7.68
2022-11-05T00:59:44.703Z,6.40
2022-11-05T01:00:54.101Z,7.35
2022-11-05T01:01:56.568Z,8.57
2022-11-05T01:03:16.894Z,7.65
2022-11-05T01:04:18.878Z,6.03
2022-11-05T01:05:21.493Z,5.90
2022-11-05T01:06:26.251Z,6.60
2022-11-05T01:07:31.729Z,7.60
2022-11-05T01:08:35.862Z,6.97
2022-11-05T01:09:38.614Z,7.97
2022-11-05T01:10:51.313Z,7.82
2022-11-05T01:11:54.906Z,8.32
2022-11-05T01:12:57.537Z,7.50
2022-11-05T01:14:05.080Z,7.40
2022-11-05T01:15:08.185Z,6.78
2022-11-05T01:16:11.006Z,7.82
2022-11-05T01:17:15.217Z,7.85
2022-11-05T01:18:19.370Z,6.88
2022-11-05T01:19:21.536Z,6.15
2022-11-05T01:20:24.363Z,6.47
2022-11-05T01:21:28.489Z,7.82
2022-11-05T01:22:32.406Z,6.95
2022-11-05T01:23:37.410Z,6.88
2022-11-05T01:24:40.158Z,7.07
2022-11-05T01:25:43.033Z,7.60
2022-11-05T01:26:45.979Z,6.07
2022-11-05T01:27:47.425Z,7.22
2022-11-05T01:28:54.554Z,7.65
2022-11-05T01:29:56.454Z,8.55
2022-11-05T01:30:58.978Z,7.95
2022-11-05T01:32:00.819Z,6.32
2022-11-05T01:33:03.476Z,8.15
2022-11-05T01:34:05.454Z,8.50
2022-11-05T01:35:13.042Z,7.15
2022-11-05T01:36:14.780Z,7.65
2022-11-05T01:37:17.658Z,7.95
2022-11-05T01:38:19.525Z,7.25
2022-11-05T01:39:22.290Z,7.13
2022-11-05T01:40:25.433Z,7.93
2022-11-05T01:41:29.186Z,8.57
2022-11-05T01:42:32.732Z,10.05
2022-11-05T01:43:56.497Z,8.63
2022-11-05T01:45:19.959Z,6.90
2022-11-05T01:46:46.352Z,9.70
2022-11-05T01:48:20.562Z,8.60
2022-11-05T01:49:42.736Z,8.00
2022-11-05T01:50:57.930Z,8.27
2022-11-05T01:52:06.842Z,7.22
2022-11-05T01:53:59.528Z,7.25
2022-11-05T01:55:02.870Z,6.03
2022-11-05T01:56:35.466Z,7.10
2022-11-05T01:57:37.942Z,7.82
2022-11-05T01:59:06.170Z,6.03
2022-11-05T02:00:09.394Z,6.50
2022-11-05T02:01:15.009Z,6.97
2022-11-05T02:02:20.897Z,5.10
2022-11-05T02:03:25.513Z,6.53
2022-11-05T02:04:42.059Z,6.35
2022-11-05T02:05:46.791Z,6.55
2022-11-05T02:06:48.611Z,7.32
2022-11-05T02:07:52.045Z,6.22
2022-11-05T02:09:12.419Z,6.72
2022-11-05T02:10:17.818Z,6.47
2022-11-05T02:11:20.251Z,6.13
2022-11-05T02:12:23.623Z,6.28
2022-11-05T02:13:25.453Z,6.00
2022-11-05T02:14:28.135Z,6.03
2022-11-05T02:15:38.655Z,6.25
2022-11-05T02:17:09.247Z,6.50
2022-11-05T02:18:27.894Z,7.05
2022-11-05T02:19:54.069Z,7.63
2022-11-05T02:21:29.424Z,7.05
2022-11-05T02:22:53.053Z,7.93
2022-11-05T02:24:43.327Z,5.82
2022-11-05T02:26:13.860Z,6.00
2022-11-05T02:27:53.440Z,6.82
2022-11-05T02:29:35.495Z,7.07
2022-11-05T02:31:24.314Z,7.70
2022-11-05T02:32:45.382Z,5.15
2022-11-05T02:34:17.184Z,5.40
2022-11-05T02:35:38.047Z,6.40
2022-11-05T02:37:09.226Z,6.13
2022-11-05T02:38:44.435Z,6.88
2022-11-05T02:40:07.998Z,6.32
2022-11-05T02:41:47.641Z,6.15
2022-11-05T02:43:19.299Z,6.75
2022-11-05T02:44:35.450Z,6.43
2022-11-05T02:46:01.035Z,7.32
2022-11-05T02:47:37.858Z,6.20
2022-11-05T02:49:00.069Z,7.53
2022-11-05T02:50:42.306Z,7.28
2022-11-05T02:51:56.370Z,7.00
2022-11-05T02:53:29.674Z,6.28
2022-11-05T02:54:41.149Z,6.43
2022-11-05T02:55:52.058Z,6.72
2022-11-05T02:56:57.961Z,6.38
2022-11-05T02:58:03.274Z,7.40
2022-11-05T02:59:06.018Z,7.70
2022-11-05T03:00:34.576Z,7.68
2022-11-05T03:01:39.608Z,7.80
2022-11-05T03:02:41.413Z,6.28
2022-11-05T03:03:53.786Z,7.00
2022-11-05T03:04:55.574Z,7.57
2022-11-05T03:06:20.787Z,10.05
2022-11-05T03:07:43.623Z,7.45
2022-11-05T03:09:22.650Z,8.38
2022-11-05T03:10:55.365Z,8.57
2022-11-05T03:12:15.363Z,8.45
2022-11-05T03:13:40.315Z,7.40
2022-11-05T03:14:54.553Z,8.95
2022-11-05T03:16:15.697Z,9.40
2022-11-05T03:17:54.776Z,8.80
2022-11-05T03:19:17.367Z,10.60
2022-11-05T03:20:25.077Z,7.72
2022-11-05T03:22:00.133Z,7.63
2022-11-05T03:23:24.919Z,7.90
2022-11-05T03:24:35.663Z,8.98
2022-11-05T03:25:45.989Z,7.45
2022-11-05T03:27:22.355Z,8.13
2022-11-05T03:28:29.501Z,8.07
2022-11-05T03:29:44.087Z,8.13
2022-11-05T03:30:46.917Z,6.82
2022-11-05T03:31:53.747Z,6.75
2022-11-05T03:33:00.617Z,7.03
2022-11-05T03:34:05.885Z,6.53
2022-11-05T03:35:23.229Z,9.20
2022-11-05T03:36:32.649Z,8.10
2022-11-05T03:37:37.929Z,6.13
2022-11-05T03:38:46.362Z,7.20
2022-11-05T03:39:59.417Z,4.70
2022-11-05T03:45:49.745Z,6.63
2022-11-05T03:46:55.353Z,7.55
2022-11-05T03:48:01.575Z,6.80
2022-11-05T03:49:08.097Z,5.60
2022-11-05T03:50:20.327Z,6.28
2022-11-05T03:51:50.311Z,6.68
2022-11-05T06:16:40.541Z,9.88
2022-11-05T06:17:44.470Z,11.02
2022-11-05T06:18:47.147Z,10.40
2022-11-05T06:19:52.156Z,10.82
2022-11-05T06:20:53.714Z,11.77
2022-11-05T06:21:55.651Z,10.90
2022-11-05T06:22:58.750Z,11.50
2022-11-05T06:24:02.353Z,10.52
2022-11-05T06:25:06.147Z,9.18
2022-11-05T06:26:15.308Z,12.73
2022-11-05T06:27:20.169Z,23.50
2022-11-05T06:28:25.287Z,17.50
2022-11-05T06:29:27.594Z,12.48
2022-11-05T06:30:29.019Z,22.38
2022-11-05T06:31:30.681Z,15.57
2022-11-05T06:32:33.447Z,30.60
2022-11-05T06:33:36.058Z,30.00
2022-11-05T06:34:38.801Z,17.88
2022-11-05T06:35:40.700Z,15.80
2022-11-05T06:36:44.165Z,15.00
2022-11-05T06:37:46.004Z,17.58
2022-11-05T06:38:48.866Z,17.88
2022-11-05T06:39:50.609Z,15.20
2022-11-05T06:40:52.674Z,30.85
2022-11-05T06:42:17.103Z,13.95
2022-11-05T06:43:18.608Z,13.15
2022-11-05T06:44:22.475Z,9.52
2022-11-05T06:45:26.145Z,10.43
2022-11-05T06:46:31.744Z,9.70
2022-11-05T06:47:33.902Z,9.30
2022-11-05T06:48:36.594Z,10.93
2022-11-05T06:49:38.603Z,9.65
2022-11-05T06:50:46.886Z,9.38
2022-11-05T06:51:48.662Z,9.05
2022-11-05T06:53:04.345Z,10.52
2022-11-05T06:54:06.875Z,12.00
2022-11-05T06:55:09.666Z,10.70
2022-11-05T06:56:11.913Z,15.35
2022-11-05T06:57:15.046Z,14.48
2022-11-05T06:58:16.625Z,14.23
2022-11-05T06:59:22.549Z,12.27
2022-11-05T07:00:24.769Z,12.45
2022-11-05T07:01:27.486Z,10.88
2022-11-05T07:02:29.609Z,12.18
2022-11-05T07:03:31.593Z,13.00
2022-11-05T07:04:35.867Z,10.15
2022-11-05T07:05:48.112Z,11.70
2022-11-05T07:06:49.532Z,9.70
2022-11-05T07:07:51.954Z,8.63
2022-11-05T07:08:54.244Z,8.40
2022-11-05T07:09:58.957Z,10.27
2022-11-05T07:11:03.394Z,8.98
2022-11-05T07:12:06.901Z,8.60
2022-11-05T07:13:09.259Z,9.60
2022-11-05T07:14:10.803Z,9.13
2022-11-05T07:15:15.261Z,9.95
2022-11-05T07:16:20.326Z,8.27
2022-11-05T07:17:23.481Z,8.43
2022-11-05T07:18:26.170Z,9.68
2022-11-05T07:19:27.731Z,10.27
2022-11-05T07:20:34.134Z,9.90
2022-11-05T07:21:36.846Z,10.32
2022-11-05T07:22:42.354Z,10.45
2022-11-05T07:23:44.557Z,10.63
2022-11-05T07:24:49.318Z,9.60
2022-11-05T07:25:52.330Z,10.40
2022-11-05T07:26:57.265Z,8.93
2022-11-05T07:27:59.686Z,9.15
2022-11-05T07:29:01.156Z,8.77
2022-11-05T07:30:07.106Z,9.32
2022-11-05T07:31:09.826Z,10.90
2022-11-05T07:32:11.654Z,7.88
2022-11-05T07:33:16.692Z,10.02
2022-11-05T07:34:18.606Z,9.07
2022-11-05T07:35:21.417Z,12.20
2022-11-05T07:36:23.698Z,11.13
2022-11-05T07:37:25.246Z,9.35
2022-11-05T07:38:26.654Z,11.00
2022-11-05T07:39:28.051Z,9.02
2022-11-05T07:40:33.071Z,10.05
2022-11-05T07:41:34.625Z,9.82
2022-11-05T07:42:37.758Z,10.70
2022-11-05T07:43:40.130Z,9.45
2022-11-05T07:44:42.852Z,11.10
2022-11-05T07:45:45.503Z,11.50
2022-11-05T07:46:49.470Z,12.10
2022-11-05T07:47:56.798Z,13.75
2022-11-05T07:48:58.362Z,11.23
2022-11-05T07:50:02.162Z,9.90
2022-11-05T07:51:03.685Z,12.23
2022-11-05T07:52:05.679Z,13.05
2022-11-05T07:53:15.049Z,13.88
2022-11-05T07:54:20.167Z,13.00
2022-11-05T07:55:23.424Z,13.23
2022-11-05T07:56:25.671Z,10.50
2022-11-05T07:57:27.903Z,12.38
2022-11-05T07:58:30.159Z,15.27
2022-11-05T07:59:32.994Z,16.15
2022-11-05T08:00:34.859Z,18.38
2022-11-05T08:01:37.582Z,17.38
2022-11-05T08:02:40.632Z,16.23
2022-11-05T08:03:42.740Z,15.60
2022-11-05T08:04:46.194Z,15.20
2022-11-05T08:05:52.889Z,14.20
2022-11-05T08:06:57.690Z,16.50
2022-11-05T08:08:00.606Z,18.67
2022-11-05T08:09:03.809Z,20.75
2022-11-05T08:10:08.488Z,18.75
2022-11-05T08:11:11.421Z,15.80
2022-11-05T08:12:14.081Z,16.92
2022-11-05T08:13:16.353Z,17.60
2022-11-05T08:14:19.065Z,18.23
2022-11-05T08:15:23.091Z,17.45
2022-11-05T08:16:24.442Z,15.55
2022-11-05T08:17:26.824Z,18.20
2022-11-05T08:18:31.681Z,17.33
2022-11-05T08:19:33.742Z,14.18
2022-11-05T08:20:36.272Z,13.05
2022-11-05T08:21:40.117Z,14.32
2022-11-05T08:22:46.281Z,13.93
2022-11-05T08:23:48.794Z,15.07
2022-11-05T08:24:52.166Z,15.38
2022-11-05T08:25:54.392Z,24.60
2022-11-05T08:26:56.769Z,22.90
2022-11-05T08:28:05.779Z,25.48
2022-11-05T08:29:08.192Z,25.13
2022-11-05T08:30:10.830Z,20.33
2022-11-05T08:31:14.671Z,17.05
2022-11-05T08:32:16.719Z,16.63
2022-11-05T08:33:21.038Z,15.48
2022-11-05T08:34:22.723Z,15.70
2022-11-05T08:35:26.959Z,15.25
2022-11-05T08:36:29.595Z,16.92
2022-11-05T08:37:32.031Z,15.93
2022-11-05T08:38:33.713Z,15.18
2022-11-05T08:39:35.674Z,12.85
2022-11-05T08:40:37.927Z,15.68
2022-11-05T08:41:43.303Z,15.82
2022-11-05T08:42:45.702Z,13.88
2022-11-05T08:43:48.570Z,12.93
2022-11-05T08:44:50.801Z,14.80
2022-11-05T08:45:52.227Z,12.57
2022-11-05T08:46:54.482Z,13.60
2022-11-05T08:48:23.492Z,13.60
2022-11-05T08:49:25.694Z,13.52
2022-11-05T08:50:29.409Z,13.90
2022-11-05T08:51:31.807Z,13.65
2022-11-05T08:52:38.582Z,14.55
2022-11-05T08:53:40.652Z,14.30
2022-11-05T08:54:46.125Z,15.13
2022-11-05T08:55:53.001Z,14.55
2022-11-05T08:56:55.666Z,15.15
2022-11-05T08:57:59.478Z,13.13
2022-11-05T08:59:01.690Z,14.23
2022-11-05T09:00:03.992Z,14.95
2022-11-05T09:01:08.986Z,13.90
2022-11-05T09:02:11.213Z,14.20
2022-11-05T09:03:15.107Z,15.60
2022-11-05T09:04:17.668Z,16.42
2022-11-05T09:05:23.245Z,14.88
2022-11-05T09:06:24.774Z,13.90
2022-11-05T09:07:31.237Z,15.77
2022-11-05T09:08:32.906Z,14.67
2022-11-05T09:09:35.622Z,15.35
2022-11-05T09:10:38.672Z,14.02
2022-11-05T09:12:05.762Z,13.57
2022-11-05T09:13:03.301Z,15.65
2022-11-05T09:14:05.649Z,15.20
2022-11-05T09:15:08.789Z,16.38
2022-11-05T09:16:26.020Z,16.93
2022-11-05T09:17:27.818Z,14.77
2022-11-05T09:18:33.621Z,15.02
2022-11-05T09:19:39.909Z,13.05
2022-11-05T09:20:43.165Z,13.10
2022-11-05T09:21:44.673Z,13.95
2022-11-05T09:22:47.722Z,15.82
2022-11-05T09:23:49.595Z,14.07
2022-11-05T09:24:57.021Z,15.13
2022-11-05T09:25:59.565Z,16.92
2022-11-05T09:27:02.642Z,13.15
2022-11-05T09:28:17.549Z,13.77
2022-11-05T09:29:21.439Z,14.30
2022-11-05T09:30:23.745Z,14.15
2022-11-05T09:31:25.106Z,13.23
2022-11-05T09:32:26.486Z,16.33
2022-11-05T09:33:29.250Z,14.70
2022-11-05T09:34:33.632Z,13.68
2022-11-05T09:35:37.374Z,14.23
2022-11-05T09:36:42.120Z,14.60
2022-11-05T09:37:47.367Z,11.50
2022-11-05T09:38:48.771Z,13.35
2022-11-05T09:39:51.889Z,11.73
2022-11-05T09:41:06.093Z,15.13
2022-11-05T09:42:10.722Z,12.73
2022-11-05T09:43:31.168Z,12.15
2022-11-05T09:45:11.361Z,14.27
2022-11-05T09:46:24.275Z,14.70
2022-11-05T09:47:35.018Z,11.98
2022-11-05T09:48:39.150Z,10.85
2022-11-05T09:49:51.687Z,13.70
2022-11-05T09:51:00.461Z,12.02
2022-11-05T09:52:02.953Z,11.40
2022-11-05T09:53:05.443Z,11.33
2022-11-05T09:54:13.244Z,9.95
2022-11-05T09:55:26.632Z,11.77
2022-11-05T09:56:33.850Z,11.43
2022-11-05T09:57:49.128Z,11.30
2022-11-05T09:58:56.945Z,8.90
2022-11-05T10:00:06.772Z,11.48
2022-11-05T10:01:34.699Z,11.40
2022-11-05T10:03:07.066Z,9.82
2022-11-05T10:04:17.316Z,12.25
2022-11-05T10:05:20.832Z,11.52
2022-11-05T10:06:25.616Z,9.00
2022-11-05T10:07:34.183Z,11.00
2022-11-05T10:08:45.793Z,8.75
2022-11-05T10:09:51.601Z,9.32
2022-11-05T10:10:58.478Z,8.85
2022-11-05T10:12:07.843Z,9.23
2022-11-05T10:13:35.162Z,9.35
2022-11-05T10:14:47.427Z,9.35
2022-11-05T10:16:33.698Z,10.75
2022-11-05T10:17:39.368Z,8.77
2022-11-05T10:18:46.437Z,7.95
2022-11-05T10:20:12.799Z,8.27
2022-11-05T10:21:27.790Z,9.10
2022-11-05T10:22:45.207Z,8.77
2022-11-05T10:23:52.755Z,8.23
2022-11-05T10:24:54.944Z,10.05
2022-11-05T10:26:12.105Z,9.18
2022-11-05T10:27:32.518Z,11.32
2022-11-05T10:28:36.447Z,7.70
2022-11-05T10:29:38.970Z,6.67
2022-11-05T10:30:46.683Z,12.75
2022-11-05T10:31:48.904Z,8.30
2022-11-05T10:32:55.029Z,9.48
2022-11-05T10:34:02.255Z,11.35
2022-11-05T10:35:08.077Z,11.10
2022-11-05T10:36:15.485Z,9.18
2022-11-05T10:37:20.461Z,7.97
2022-11-05T10:38:22.854Z,8.27
2022-11-05T10:39:28.710Z,10.90
2022-11-05T10:40:56.146Z,8.07
2022-11-05T10:42:34.908Z,11.30
2022-11-05T10:43:47.062Z,7.82
2022-11-05T10:45:06.313Z,7.88
2022-11-05T10:46:42.293Z,10.57
2022-11-05T10:48:20.978Z,8.75
2022-11-05T10:49:48.678Z,9.18
2022-11-05T10:50:51.619Z,10.30
2022-11-05T10:51:58.518Z,9.27
2022-11-05T10:53:24.020Z,10.65
2022-11-05T10:54:31.716Z,9.32
2022-11-05T10:55:42.110Z,11.80
2022-11-05T10:56:44.393Z,9.52
2022-11-05T10:57:49.576Z,11.82
2022-11-05T10:59:00.672Z,9.70
2022-11-05T11:00:22.433Z,10.80
2022-11-05T11:01:26.244Z,8.57
2022-11-05T11:02:33.696Z,11.70
2022-11-05T11:04:10.829Z,9.55
2022-11-05T11:05:27.858Z,9.13
2022-11-05T11:06:32.649Z,9.63
2022-11-05T11:07:38.438Z,10.37
2022-11-05T11:08:48.729Z,11.38
2022-11-05T11:09:51.818Z,10.10
2022-11-05T11:11:02.106Z,11.10
2022-11-05T11:12:25.773Z,10.65
2022-11-05T11:13:47.992Z,12.68
2022-11-05T11:15:26.100Z,10.95
2022-11-05T11:16:36.971Z,12.18
2022-11-05T11:17:38.758Z,11.20
2022-11-05T11:18:46.376Z,12.73
2022-11-05T11:19:48.734Z,12.65
2022-11-05T11:20:51.807Z,13.27
2022-11-05T11:22:05.967Z,12.95
2022-11-05T11:23:15.676Z,10.93
2022-11-05T11:24:31.001Z,10.30
2022-11-05T11:26:10.381Z,9.30
2022-11-05T11:27:26.835Z,13.38
2022-11-05T11:28:47.473Z,9.02
2022-11-05T11:30:21.022Z,9.90
2022-11-05T11:31:37.085Z,12.27
2022-11-05T11:32:39.885Z,9.98
2022-11-05T11:33:57.942Z,11.13
2022-11-05T11:35:01.215Z,10.68
2022-11-05T11:36:07.978Z,11.98
2022-11-05T11:37:19.061Z,9.63
2022-11-05T11:38:24.360Z,11.40
2022-11-05T11:39:30.430Z,10.48
2022-11-05T11:40:37.073Z,10.50
2022-11-05T11:41:44.648Z,10.52
2022-11-05T11:42:51.637Z,8.80
2022-11-05T11:43:59.382Z,9.25
2022-11-05T11:45:15.383Z,9.60
2022-11-05T11:46:22.537Z,10.65
2022-11-05T11:47:27.979Z,52.80
2022-11-05T11:48:37.422Z,11.00
2022-11-05T11:49:41.444Z,10.95
2022-11-05T11:50:46.404Z,11.70
2022-11-05T11:51:51.439Z,12.40
2022-11-05T11:52:53.763Z,14.35
2022-11-05T11:53:59.229Z,10.77
2022-11-05T11:55:15.024Z,10.15
2022-11-05T11:56:21.748Z,11.60
2022-11-05T11:57:27.086Z,8.38
2022-11-05T11:58:53.734Z,10.95
2022-11-05T12:00:08.672Z,11.20
2022-11-05T12:01:32.780Z,12.40
2022-11-05T12:03:11.215Z,11.38
2022-11-05T12:04:40.032Z,11.35
2022-11-05T12:05:45.746Z,9.25
2022-11-05T12:07:23.121Z,10.00
2022-11-05T12:08:32.362Z,10.75
2022-11-05T12:10:11.675Z,8.88
2022-11-05T12:11:38.548Z,11.40
2022-11-05T12:13:01.967Z,10.50
2022-11-05T12:14:32.482Z,8.57
2022-11-05T12:15:57.164Z,9.90
2022-11-05T12:17:25.675Z,9.73
2022-11-05T12:18:38.983Z,12.55
2022-11-05T12:20:16.417Z,11.48
2022-11-05T12:21:53.456Z,13.15
2022-11-05T12:23:25.917Z,14.00
2022-11-05T12:24:51.981Z,10.90
2022-11-05T12:26:19.173Z,11.75
2022-11-05T12:27:51.694Z,12.18
2022-11-05T12:29:35.737Z,12.63
2022-11-05T12:31:17.170Z,10.40
2022-11-05T12:32:44.513Z,10.77
2022-11-05T12:33:57.402Z,11.63
2022-11-05T12:35:01.170Z,9.90
2022-11-05T12:36:11.205Z,9.65
2022-11-05T12:37:41.684Z,9.93
2022-11-05T12:39:16.173Z,9.32
2022-11-05T12:40:39.022Z,9.60
2022-11-05T12:42:02.652Z,8.68
2022-11-05T12:43:16.795Z,10.05
2022-11-05T12:44:51.213Z,8.57
2022-11-05T12:46:27.048Z,8.90
2022-11-05T12:47:57.443Z,9.57
2022-11-05T12:49:08.839Z,9.30
2022-11-05T12:50:28.605Z,9.98
2022-11-05T12:52:08.156Z,10.60
2022-11-05T12:53:42.091Z,14.75
2022-11-05T12:55:04.088Z,15.77
2022-11-05T12:56:39.881Z,12.05
2022-11-05T12:57:45.608Z,5.22
2022-11-05T12:59:00.650Z,6.43
2022-11-05T13:00:19.174Z,6.18
2022-11-05T13:01:37.589Z,7.10
2022-11-05T13:02:50.691Z,7.43
2022-11-05T13:03:59.806Z,6.67
2022-11-05T13:05:44.500Z,5.07
2022-11-05T13:06:52.673Z,5.85
2022-11-05T13:08:15.124Z,5.00
2022-11-05T13:09:26.414Z,4.93
2022-11-05T13:10:34.697Z,6.00
2022-11-05T13:11:49.495Z,5.72
2022-11-05T13:13:05.119Z,6.47
2022-11-05T13:14:15.660Z,6.40
2022-11-05T13:15:30.082Z,5.40
2022-11-05T13:16:45.884Z,6.32
2022-11-05T13:18:15.028Z,5.07
2022-11-05T13:19:26.397Z,6.85
2022-11-05T13:20:32.855Z,3.60
2022-11-05T13:21:37.692Z,5.28
2022-11-05T13:22:45.114Z,6.90
2022-11-05T13:24:12.294Z,6.60
2022-11-05T13:25:38.872Z,5.80
2022-11-05T13:27:21.719Z,5.10
2022-11-05T13:28:25.823Z,5.82
2022-11-05T13:29:47.975Z,4.30
2022-11-05T13:30:58.157Z,4.78
2022-11-05T13:32:42.509Z,3.00
2022-11-05T13:33:48.557Z,5.15
2022-11-05T13:34:55.501Z,6.47
2022-11-05T13:36:42.557Z,6.22
2022-11-05T13:38:09.176Z,5.43
2022-11-05T13:39:53.910Z,4.88
2022-11-05T13:41:28.525Z,6.65
2022-11-05T13:43:07.627Z,6.10
2022-11-05T13:44:47.646Z,6.05
2022-11-05T13:46:06.325Z,6.20
2022-11-05T13:48:05.748Z,7.03
2022-11-05T13:51:51.549Z,6.82
2022-11-05T13:53:34.646Z,6.32
2022-11-05T13:54:53.110Z,5.63
2022-11-05T13:56:26.556Z,5.97
2022-11-05T13:58:01.706Z,4.78
2022-11-05T13:59:10.555Z,5.55
2022-11-05T14:00:30.694Z,6.18
2022-11-05T14:02:00.380Z,6.40
2022-11-05T14:03:15.758Z,7.55
2022-11-05T14:04:31.457Z,6.03
2022-11-05T14:05:36.538Z,5.70
2022-11-05T14:06:38.854Z,4.60
2022-11-05T14:07:46.431Z,6.07
2022-11-05T14:08:48.289Z,6.72
2022-11-05T14:09:57.129Z,6.93
2022-11-05T14:11:23.503Z,6.18
2022-11-05T14:12:32.127Z,7.97
2022-11-05T14:13:44.565Z,8.88
2022-11-05T14:14:58.476Z,7.97
2022-11-05T14:16:08.062Z,7.32
2022-11-05T14:17:31.676Z,6.78
2022-11-05T14:19:17.369Z,5.15
2022-11-05T14:20:30.797Z,5.10
2022-11-05T14:21:51.375Z,6.15
2022-11-05T14:23:15.065Z,7.65
2022-11-05T14:24:28.362Z,7.63
2022-11-05T14:25:51.773Z,7.55
2022-11-05T14:27:29.556Z,7.53
2022-11-05T14:28:37.603Z,7.10
2022-11-05T14:29:58.235Z,6.38
2022-11-05T14:31:20.856Z,6.28
2022-11-05T14:32:25.407Z,7.22
2022-11-05T14:33:38.914Z,5.55
2022-11-05T14:34:42.938Z,6.68
2022-11-05T14:35:46.013Z,6.18
2022-11-05T14:37:29.920Z,6.45
2022-11-05T14:38:31.489Z,7.35
2022-11-05T14:39:33.959Z,8.20
2022-11-05T14:41:01.682Z,9.43
2022-11-05T14:42:06.444Z,7.00
2022-11-05T14:43:22.698Z,6.78
2022-11-05T14:44:26.835Z,4.78
2022-11-05T14:45:40.722Z,8.35
2022-11-05T14:46:49.160Z,9.32
2022-11-05T14:47:58.181Z,7.25
2022-11-05T14:49:09.172Z,8.52
2022-11-05T14:50:51.649Z,8.48
2022-11-05T14:52:00.063Z,8.68
2022-11-05T14:53:12.922Z,7.78
2022-11-05T14:54:47.519Z,6.80
2022-11-05T14:55:59.629Z,6.60
2022-11-05T14:57:02.794Z,8.30
2022-11-05T14:58:39.838Z,7.73
2022-11-05T15:00:04.275Z,7.22
2022-11-05T15:01:48.865Z,6.53
2022-11-05T15:02:58.349Z,7.35
2022-11-05T15:04:42.671Z,8.25
2022-11-05T15:05:52.893Z,6.90
2022-11-05T15:07:06.124Z,6.32
2022-11-05T15:08:36.476Z,6.18
2022-11-05T15:09:53.034Z,6.07
2022-11-05T15:11:04.268Z,5.30
2022-11-05T15:12:21.859Z,7.22
2022-11-05T15:13:33.561Z,9.97
2022-11-05T15:14:50.226Z,12.40
2022-11-05T15:15:52.389Z,10.95
2022-11-05T15:16:59.642Z,10.68
2022-11-05T15:18:13.771Z,9.02
2022-11-05T15:19:21.269Z,8.18
2022-11-05T15:20:35.870Z,8.90
2022-11-05T15:21:46.335Z,12.13
2022-11-05T15:22:52.822Z,9.77
2022-11-05T15:23:56.834Z,9.77
2022-11-05T15:24:59.791Z,11.40
2022-11-05T15:26:47.545Z,9.27
2022-11-05T15:28:06.463Z,10.00
2022-11-05T15:29:21.650Z,9.25
2022-11-05T15:30:25.063Z,10.38
2022-11-05T15:31:41.642Z,8.77
2022-11-05T15:32:46.311Z,10.18
2022-11-05T15:33:48.346Z,10.35
2022-11-05T15:34:52.735Z,10.15
2022-11-05T15:35:56.285Z,10.40
2022-11-05T15:37:12.018Z,8.88
2022-11-05T15:38:36.608Z,8.70
2022-11-05T15:39:45.314Z,9.40
2022-11-05T15:40:46.857Z,10.35
2022-11-05T15:41:56.010Z,7.53
2022-11-05T15:43:19.847Z,6.65
2022-11-05T15:44:44.433Z,6.97
2022-11-05T15:46:03.838Z,7.38
2022-11-05T15:47:25.215Z,7.93
2022-11-05T15:48:27.042Z,10.50
2022-11-05T15:49:28.907Z,10.80
2022-11-05T15:50:31.109Z,9.40
2022-11-05T15:51:36.718Z,8.43
2022-11-05T15:52:51.590Z,8.82
2022-11-05T15:55:28.046Z,10.90
2022-11-05T15:56:37.711Z,10.18
2022-11-05T15:57:50.717Z,11.32
2022-11-05T15:59:05.620Z,11.90
2022-11-05T16:00:31.091Z,12.18
2022-11-05T16:01:45.651Z,15.32
2022-11-05T16:03:25.106Z,16.60
2022-11-05T16:04:30.916Z,15.75
2022-11-05T16:05:36.303Z,14.00
2022-11-05T16:06:41.391Z,14.55
2022-11-05T16:07:45.561Z,13.63
2022-11-05T16:08:50.997Z,14.17
2022-11-05T16:10:01.182Z,14.98
2022-11-05T16:11:04.377Z,14.23
2022-11-05T16:12:18.276Z,15.13
2022-11-05T16:13:32.238Z,15.68
2022-11-05T16:14:35.381Z,19.75
2022-11-05T16:15:36.925Z,12.75
2022-11-05T16:16:38.953Z,14.13
2022-11-05T16:17:51.507Z,13.82
2022-11-05T16:18:56.045Z,12.80
2022-11-05T16:19:58.774Z,12.10
2022-11-05T16:21:25.448Z,11.40
2022-11-05T16:22:46.509Z,11.05
2022-11-05T16:23:48.962Z,10.35
2022-11-05T16:24:50.550Z,11.30
2022-11-05T16:25:55.180Z,10.25
2022-11-05T16:27:02.976Z,12.52
2022-11-05T16:28:27.828Z,11.25
2022-11-05T16:29:34.691Z,10.70
2022-11-05T16:30:37.003Z,12.70
2022-11-05T16:31:41.914Z,12.95
2022-11-05T16:32:43.973Z,12.43
2022-11-05T16:33:48.865Z,12.85
2022-11-05T16:34:53.578Z,17.55
2022-11-05T16:35:58.555Z,14.30
2022-11-05T16:37:01.189Z,13.25
2022-11-05T16:38:03.102Z,13.65
2022-11-05T16:39:04.897Z,13.07
2022-11-05T16:40:18.897Z,12.02
2022-11-05T16:41:22.526Z,12.90
2022-11-05T16:42:33.445Z,13.27
2022-11-05T16:43:35.014Z,10.57
2022-11-05T16:44:37.697Z,11.02
2022-11-05T16:45:41.357Z,11.70
2022-11-05T16:46:47.604Z,11.32
2022-11-05T16:47:51.001Z,12.80
2022-11-05T16:48:53.044Z,13.18
2022-11-05T16:49:55.652Z,14.18
2022-11-05T16:50:58.022Z,13.30
2022-11-05T16:52:00.411Z,15.00
2022-11-05T16:53:02.626Z,13.25
2022-11-05T16:54:05.960Z,15.00
2022-11-05T16:55:11.331Z,14.25
2022-11-05T16:56:18.607Z,11.77
2022-11-05T16:57:27.101Z,13.43
2022-11-05T16:58:32.068Z,12.25
2022-11-05T16:59:34.544Z,11.45
2022-11-05T17:00:37.053Z,11.85
2022-11-05T17:01:41.331Z,11.60
2022-11-05T17:02:46.178Z,12.23
2022-11-05T17:03:49.755Z,11.43
2022-11-05T17:04:52.346Z,13.45
2022-11-05T17:05:55.189Z,11.88
2022-11-05T17:06:57.711Z,11.30
2022-11-05T17:08:03.993Z,13.70
2022-11-05T17:09:07.764Z,13.52
2022-11-05T17:10:11.105Z,16.38
2022-11-05T17:11:21.003Z,14.48
2022-11-05T17:12:22.942Z,13.50
2022-11-05T17:13:25.059Z,14.13
2022-11-05T17:14:28.330Z,14.52
2022-11-05T17:15:35.879Z,15.75
2022-11-05T17:16:39.298Z,12.57
2022-11-05T17:17:41.019Z,15.90
2022-11-05T17:18:46.716Z,17.98
2022-11-05T17:19:48.969Z,14.40
2022-11-05T17:20:53.365Z,14.55
2022-11-05T17:21:55.401Z,15.73
2022-11-05T17:22:59.616Z,14.30
2022-11-05T17:24:02.469Z,16.33
2022-11-05T17:25:05.527Z,18.10
2022-11-05T17:26:10.785Z,15.65
2022-11-05T17:27:14.182Z,16.73
2022-11-05T17:28:17.540Z,16.45
2022-11-05T17:29:21.095Z,16.80
2022-11-05T17:30:26.062Z,14.05
2022-11-05T17:31:28.527Z,14.93
2022-11-05T17:32:30.969Z,12.05
2022-11-05T17:33:34.329Z,13.43
2022-11-05T17:34:36.062Z,17.30
2022-11-05T17:35:43.071Z,13.70
2022-11-05T17:36:45.067Z,15.15
2022-11-05T17:37:47.909Z,15.32
2022-11-05T17:38:52.930Z,19.48
2022-11-05T17:39:55.525Z,19.33
2022-11-05T17:40:58.145Z,21.92
2022-11-05T17:41:59.581Z,17.52
2022-11-05T17:43:02.973Z,17.63
2022-11-05T17:44:05.796Z,16.23
2022-11-05T17:45:12.461Z,14.50
2022-11-05T17:46:20.011Z,12.65
2022-11-05T17:47:22.454Z,11.68
2022-11-05T17:48:27.075Z,12.23
2022-11-05T17:49:29.097Z,12.63
2022-11-05T17:50:31.679Z,13.18
2022-11-05T17:53:42.025Z,12.90
2022-11-05T17:54:46.410Z,14.43
2022-11-05T17:55:49.266Z,12.70
2022-11-05T17:56:53.302Z,13.75
2022-11-05T17:57:55.300Z,12.20
2022-11-05T17:58:59.589Z,15.98
2022-11-05T18:00:02.158Z,12.57
2022-11-05T18:01:05.922Z,17.48
2022-11-05T18:02:12.909Z,10.02
2022-11-05T18:03:15.482Z,11.77
2022-11-05T18:04:21.192Z,10.75
2022-11-05T18:05:25.121Z,12.38
2022-11-05T18:06:28.278Z,14.32